createdAt,value
2022-12-23T00:04:04.965Z,98959.5
2022-12-23T00:09:42.455Z,98955.1
2022-12-23T00:15:19.287Z,98948.5
2022-12-23T00:21:09.994Z,98940.1
2022-12-23T00:26:48.831Z,98937.1
2022-12-23T00:32:24.882Z,98927.4
2022-12-23T00:37:59.925Z,98925.6
2022-12-23T00:43:35.230Z,98923.7
2022-12-23T00:49:33.311Z,98931.9
2022-12-23T00:55:06.080Z,98935.6
2022-12-23T01:01:02.117Z,98937.9
2022-12-23T01:06:37.939Z,98945.8
2022-12-23T01:12:15.979Z,98944.9
2022-12-23T01:18:40.703Z,98951.2
2022-12-23T01:24:39.271Z,98943.3
2022-12-23T01:30:23.815Z,98949.1
2022-12-23T01:35:59.255Z,98936
2022-12-23T01:41:36.986Z,98926.5
2022-12-23T01:48:16.155Z,98928.6
2022-12-23T01:53:49.359Z,98927.3
2022-12-23T01:59:28.849Z,98924.7
2022-12-23T02:05:13.187Z,98926.1
2022-12-23T02:10:54.197Z,98929.3
2022-12-23T02:16:34.582Z,98926
2022-12-23T02:22:34.958Z,98922.7
2022-12-23T02:28:13.104Z,98917.7
2022-12-23T02:33:48.069Z,98912.8
2022-12-23T02:39:42.831Z,98910.1
2022-12-23T02:45:48.799Z,98912.2
2022-12-23T02:51:25.481Z,98917.3
2022-12-23T02:57:23.152Z,98912.1
2022-12-23T03:03:02.617Z,98904.7
2022-12-23T03:08:39.453Z,98904.3
2022-12-23T03:14:18.606Z,98896.5
2022-12-23T03:19:57.312Z,98888.4
2022-12-23T03:26:02.402Z,98904.8
2022-12-23T03:31:45.694Z,98911
2022-12-23T03:37:21.450Z,98911.2
2022-12-23T03:42:56.339Z,98895.7
2022-12-23T03:49:23.352Z,98885.3
2022-12-23T03:55:05.060Z,98876.5
2022-12-23T04:00:45.675Z,98901.9
2022-12-23T04:06:40.653Z,98901.4
2022-12-23T04:13:07.345Z,98916.2
2022-12-23T04:18:42.583Z,98914.9
2022-12-23T04:24:18.625Z,98929
2022-12-23T04:30:46.852Z,98925.6
2022-12-23T04:36:22.307Z,98911.9
2022-12-23T04:41:58.589Z,98911.6
2022-12-23T04:48:04.780Z,98897.1
2022-12-23T04:53:38.370Z,98890.7
2022-12-23T04:59:18.652Z,98919.2
2022-12-23T05:04:54.578Z,98908.9
2022-12-23T05:10:31.100Z,98905.9
2022-12-23T05:16:09.424Z,98893.8
2022-12-23T05:21:51.998Z,98891.7
2022-12-23T05:27:45.044Z,98869.1
2022-12-23T05:33:20.695Z,98859.9
2022-12-23T05:38:56.645Z,98855.1
2022-12-23T05:44:51.879Z,98842.7
2022-12-23T05:50:35.406Z,98826.6
2022-12-23T05:56:11.214Z,98823.4
2022-12-23T06:01:59.503Z,98812.4
2022-12-23T06:07:36.191Z,98816
2022-12-23T06:13:12.247Z,98817
2022-12-23T06:18:51.367Z,98815.2
2022-12-23T06:24:26.238Z,98824.4
2022-12-23T06:30:01.521Z,98830.4
2022-12-23T06:35:44.050Z,98836.7
2022-12-23T06:41:19.248Z,98841.1
2022-12-23T06:47:16.119Z,98840
2022-12-23T06:52:48.819Z,98847.8
2022-12-23T06:58:42.589Z,98845.2
2022-12-23T07:04:24.319Z,98851
2022-12-23T07:10:00.866Z,98852.2
2022-12-23T07:15:43.885Z,98852.6
2022-12-23T07:21:30.676Z,98848.6
2022-12-23T07:27:05.807Z,98838.4
2022-12-23T07:32:41.405Z,98827.1
2022-12-23T07:38:16.770Z,98830.5
2022-12-23T07:44:37.502Z,98835.4
2022-12-23T07:50:12.809Z,98823.6
2022-12-23T07:55:57.233Z,98826.6
2022-12-23T08:01:33.388Z,98827.6
2022-12-23T08:07:49.396Z,98827.8
2022-12-23T08:13:29.160Z,98828.8
2022-12-23T08:19:05.495Z,98828.1
2022-12-23T08:24:43.219Z,98825.2
2022-12-23T08:30:19.847Z,98831.3
2022-12-23T08:35:56.318Z,98835.2
2022-12-23T08:41:35.001Z,98833.9
2022-12-23T08:47:12.669Z,98845.7
2022-12-23T08:52:48.806Z,98850.6
2022-12-23T08:58:41.586Z,98858.1
2022-12-23T09:04:17.831Z,98848.1
2022-12-23T09:10:17.726Z,98828.1
2022-12-23T09:15:59.383Z,98842.2
2022-12-23T09:21:54.808Z,98852.3
2022-12-23T09:27:37.603Z,98850.7
2022-12-23T09:33:21.669Z,98866.9
2022-12-23T09:39:10.811Z,98878.9
2022-12-23T09:44:46.435Z,98887.6
2022-12-23T09:50:24.489Z,98895.7
2022-12-23T09:55:59.971Z,98897
2022-12-23T10:01:45.940Z,98909.9
2022-12-23T10:07:22.493Z,98916.2
2022-12-23T10:12:58.267Z,98925.2
2022-12-23T10:18:41.706Z,98934.4
2022-12-23T10:24:49.233Z,98923.2
2022-12-23T10:31:41.575Z,98914.2
2022-12-23T10:37:24.893Z,98895
2022-12-23T10:43:11.791Z,98889.3
2022-12-23T10:49:11.867Z,98876.8
2022-12-23T10:54:56.335Z,98874.2
2022-12-23T11:00:51.239Z,98879.9
2022-12-23T11:06:38.211Z,98871.9
2022-12-23T11:12:13.463Z,98877.7
2022-12-23T11:17:48.750Z,98867.2
2022-12-23T11:23:37.492Z,98848.8
2022-12-23T11:29:12.879Z,98859.5
2022-12-23T11:35:21.220Z,98856.5
2022-12-23T11:40:59.894Z,98839.1
2022-12-23T11:46:43.291Z,98832
2022-12-23T11:52:31.942Z,98832.4
2022-12-23T11:58:20.535Z,98828.5
2022-12-23T12:04:13.296Z,98822.8
2022-12-23T12:10:47.806Z,98804.3
2022-12-23T12:16:25.554Z,98797
2022-12-23T12:22:01.340Z,98799.8
2022-12-23T12:27:37.435Z,98791.8
2022-12-23T12:33:13.013Z,98773.1
2022-12-23T12:38:57.683Z,98756.7
2022-12-23T12:44:35.934Z,98766.3
2022-12-23T12:50:12.734Z,98760.8
2022-12-23T12:55:48.591Z,98775.1
2022-12-23T13:01:51.260Z,98771
2022-12-23T13:07:27.012Z,98770.7
2022-12-23T13:13:25.589Z,98781.6
2022-12-23T13:19:00.839Z,98786.5
2022-12-23T13:25:09.616Z,98782.1
2022-12-23T13:30:58.515Z,98789.6
2022-12-23T13:36:34.742Z,98792.7
2022-12-23T13:42:24.540Z,98773.1
2022-12-23T13:48:26.555Z,98760.8
2022-12-23T13:54:05.898Z,98758.9
2022-12-23T13:59:41.756Z,98769.8
2022-12-23T14:05:25.145Z,98770.1
2022-12-23T14:11:06.474Z,98765.1
2022-12-23T14:16:53.709Z,98754.8
2022-12-23T14:22:32.536Z,98738.3
2022-12-23T14:28:11.387Z,98742.4
2022-12-23T14:34:11.956Z,98736.4
2022-12-23T14:39:55.804Z,98748.4
2022-12-23T14:45:32.094Z,98742
2022-12-23T14:51:07.279Z,98742.5
2022-12-23T14:56:44.976Z,98752.4
2022-12-23T15:02:25.267Z,98753.8
2022-12-23T15:08:01.279Z,98756.1
2022-12-23T15:13:40.275Z,98764.7
2022-12-23T15:19:20.557Z,98758.5
2022-12-23T15:25:03.879Z,98756.3
2022-12-23T15:30:39.200Z,98751.6
2022-12-23T15:36:15.595Z,98755.2
2022-12-23T15:41:50.916Z,98764.3
2022-12-23T15:47:47.324Z,98755.9
2022-12-23T15:53:27.696Z,98749.4
2022-12-23T15:59:25.105Z,98748.8
2022-12-23T16:05:52.852Z,98741.3
2022-12-23T16:11:37.528Z,98732.8
2022-12-23T16:17:12.723Z,98719.7
2022-12-23T16:23:09.676Z,98716.6
2022-12-23T16:28:46.038Z,98723.4
2022-12-23T16:34:22.131Z,98720.7
2022-12-23T16:40:13.269Z,98733.6
2022-12-23T16:45:49.096Z,98746.5
2022-12-23T16:51:24.835Z,98757.8
2022-12-23T16:57:05.924Z,98758.8
2022-12-23T17:02:42.254Z,98755.3
2022-12-23T17:08:24.778Z,98758
2022-12-23T17:14:25.336Z,98766.1
2022-12-23T17:20:11.829Z,98778.8
2022-12-23T17:25:54.594Z,98778.9
2022-12-23T17:31:29.984Z,98759.2
2022-12-23T17:37:12.664Z,98761.3
2022-12-23T17:43:05.513Z,98755.7
2022-12-23T17:48:58.355Z,98756.1
2022-12-23T17:54:33.886Z,98750.9
2022-12-23T18:00:10.176Z,98754.9
2022-12-23T18:05:47.120Z,98756.3
2022-12-23T18:11:23.063Z,98756.2
2022-12-23T18:16:59.524Z,98754.7
2022-12-23T18:22:35.835Z,98750.2
2022-12-23T18:28:20.636Z,98751.8
2022-12-23T18:34:46.614Z,98752.4
2022-12-23T18:40:54.200Z,98758.5
2022-12-23T18:47:33.081Z,98759.2
2022-12-23T18:53:06.287Z,98753.3
2022-12-23T18:58:42.759Z,98753.9
2022-12-23T19:04:19.660Z,98751
2022-12-23T19:09:58.529Z,98747.5
2022-12-23T19:15:34.086Z,98754.9
2022-12-23T19:21:10.698Z,98778
2022-12-23T19:26:56.087Z,98777.8
2022-12-23T19:33:16.377Z,98784.9
2022-12-23T19:38:58.708Z,98782.7
2022-12-23T19:44:58.880Z,98796.1
2022-12-23T19:50:35.418Z,98796.7
2022-12-23T19:56:10.267Z,98796.2
2022-12-23T20:01:58.093Z,98809.5
2022-12-23T20:07:49.116Z,98814.7
2022-12-23T20:13:33.359Z,98825.9
2022-12-23T20:19:24.562Z,98842.1
2022-12-23T20:25:09.393Z,98847.7
2022-12-23T20:30:45.133Z,98846.4
2022-12-23T20:36:21.571Z,98852
2022-12-23T20:42:00.306Z,98854.4
2022-12-23T20:47:57.437Z,98861.6
2022-12-23T20:53:51.725Z,98872.2
2022-12-23T20:59:45.619Z,98888.2
2022-12-23T21:05:45.633Z,98902.6
2022-12-23T21:11:21.967Z,98917.6
2022-12-23T21:16:57.248Z,98925.6
2022-12-23T21:22:41.274Z,98939.1
2022-12-23T21:28:20.448Z,98941.3
2022-12-23T21:33:56.916Z,98946.1
2022-12-23T21:39:37.134Z,98939.4
2022-12-23T21:45:12.931Z,98942.7
2022-12-23T21:50:48.107Z,98943.4
2022-12-23T21:56:25.325Z,98945
2022-12-23T22:02:04.325Z,98932.4
2022-12-23T22:07:39.752Z,98935
2022-12-23T22:13:21.457Z,98928.2
2022-12-23T22:19:05.460Z,98924.2
2022-12-23T22:24:41.081Z,98929.7
2022-12-23T22:30:18.217Z,98928.6
2022-12-23T22:36:00.217Z,98943.3
2022-12-23T22:41:48.945Z,98959.2
2022-12-23T22:48:08.215Z,98956
2022-12-23T22:53:41.484Z,98986.6
2022-12-23T22:59:17.695Z,98990.6
2022-12-23T23:04:52.775Z,98988.7
2022-12-23T23:10:29.276Z,99003.6
2022-12-23T23:16:04.658Z,99004.7
2022-12-23T23:21:40.082Z,98986
2022-12-23T23:27:25.091Z,99001
2022-12-23T23:33:00.006Z,99008.2
2022-12-23T23:39:01.042Z,98997.4
2022-12-23T23:44:48.256Z,98992.3
2022-12-23T23:50:23.311Z,99002.9
2022-12-23T23:56:04.178Z,99002.7
